Terminal Aerodrome Forecast
Issued by NWS Shreveport, LA

Home | Current Version | Previous Version | Text Only | Print | Product List | Glossary On
Versions: 1 2 3 4 5 6 7 8 9 10 11 12 13
000
FTUS44 KSHV 041734
TAFMLU
TAF
KMLU 041734Z 0418/0518 14007KT P6SM SCT045
     FM050100 15003KT P6SM SCT060 SCT250
     FM051100 VRB03KT P6SM SCT035 BKN100
      TEMPO 0512/0513 5SM BR BKN030 BKN100
     FM051500 13009G15KT P6SM SCT040 BKN100=

USA.gov is the U.S. government's official web portal to all federal, state and local government web resources and services.